createdAt,value
2023-02-07T00:01:43.316Z,41.84
2023-02-07T00:06:45.231Z,41.82
2023-02-07T00:11:47.493Z,41.75
2023-02-07T00:16:49.604Z,41.75
2023-02-07T00:21:51.510Z,41.72
2023-02-07T00:26:53.718Z,41.82
2023-02-07T00:31:55.634Z,41.50
2023-02-07T00:36:57.782Z,41.43
2023-02-07T00:41:59.690Z,41.43
2023-02-07T00:47:01.611Z,41.35
2023-02-07T00:52:03.903Z,41.61
2023-02-07T00:57:05.829Z,41.47
2023-02-07T01:02:07.743Z,41.61
2023-02-07T01:07:09.698Z,41.64
2023-02-07T01:12:11.682Z,41.50
2023-02-07T01:17:13.618Z,41.53
2023-02-07T01:22:15.505Z,41.15
2023-02-07T01:27:17.708Z,41.58
2023-02-07T01:32:19.759Z,41.43
2023-02-07T01:37:21.797Z,41.78
2023-02-07T01:42:26.132Z,41.42
2023-02-07T01:47:29.534Z,41.57
2023-02-07T01:52:38.880Z,41.52
2023-02-07T01:57:40.977Z,41.61
2023-02-07T02:02:43.300Z,41.42
2023-02-07T02:07:45.690Z,41.70
2023-02-07T02:13:32.506Z,41.52
2023-02-07T02:18:43.288Z,41.66
2023-02-07T02:24:04.004Z,41.40
2023-02-07T02:29:30.882Z,41.38
2023-02-07T02:34:52.686Z,41.52
2023-02-07T02:40:21.977Z,41.68
2023-02-07T02:45:39.608Z,41.42
2023-02-07T02:50:47.551Z,41.41
2023-02-07T02:56:11.564Z,41.46
2023-02-07T03:01:30.597Z,41.64
2023-02-07T03:06:58.474Z,41.64
2023-02-07T03:12:48.628Z,41.47
2023-02-07T03:18:09.640Z,41.56
2023-02-07T03:23:14.249Z,41.30
2023-02-07T03:28:18.751Z,41.47
2023-02-07T03:33:21.434Z,41.13
2023-02-07T03:38:23.809Z,41.46
2023-02-07T03:43:29.804Z,41.34
2023-02-07T03:48:32.108Z,41.52
2023-02-07T03:53:34.122Z,41.52
2023-02-07T03:58:36.345Z,41.52
2023-02-07T04:03:38.117Z,41.43
2023-02-07T04:08:40.278Z,41.48
2023-02-07T04:13:42.284Z,41.20
2023-02-07T04:18:44.375Z,41.48
2023-02-07T04:23:46.271Z,41.16
2023-02-07T04:28:48.226Z,41.03
2023-02-07T04:33:50.317Z,41.27
2023-02-07T04:38:52.324Z,41.33
2023-02-07T04:43:54.424Z,41.33
2023-02-07T04:48:56.414Z,41.07
2023-02-07T04:53:58.672Z,41.01
2023-02-07T04:59:00.618Z,41.11
2023-02-07T05:04:02.381Z,41.22
2023-02-07T05:09:04.338Z,41.23
2023-02-07T05:14:06.175Z,41.05
2023-02-07T05:19:08.019Z,41.07
2023-02-07T05:24:09.977Z,41.17
2023-02-07T05:29:11.916Z,41.19
2023-02-07T05:34:13.958Z,41.03
2023-02-07T05:39:15.890Z,40.96
2023-02-07T05:44:17.915Z,40.91
2023-02-07T05:49:19.994Z,41.07
2023-02-07T05:54:21.886Z,41.08
2023-02-07T05:59:23.858Z,41.02
2023-02-07T06:04:26.044Z,40.92
2023-02-07T06:09:27.841Z,40.68
2023-02-07T06:14:29.588Z,40.65
2023-02-07T06:19:31.665Z,40.77
2023-02-07T06:24:33.597Z,40.74
2023-02-07T06:29:35.737Z,40.70
2023-02-07T06:34:37.885Z,40.73
2023-02-07T06:39:40.372Z,40.68
2023-02-07T06:44:42.344Z,40.76
2023-02-07T06:49:44.286Z,40.92
2023-02-07T06:54:46.218Z,40.99
2023-02-07T06:59:48.080Z,40.80
2023-02-07T07:04:50.938Z,40.76
2023-02-07T07:09:52.846Z,40.58
2023-02-07T07:14:54.935Z,40.70
2023-02-07T07:19:56.998Z,40.88
2023-02-07T07:24:58.888Z,40.78
2023-02-07T07:30:01.807Z,40.64
2023-02-07T07:35:04.816Z,40.11
2023-02-07T07:40:07.274Z,39.84
2023-02-07T07:45:10.343Z,40.01
2023-02-07T07:50:14.605Z,39.91
2023-02-07T07:55:16.670Z,39.99
2023-02-07T08:00:18.710Z,39.66
2023-02-07T08:05:20.904Z,39.79
2023-02-07T08:10:22.777Z,39.09
2023-02-07T08:15:25.674Z,38.91
2023-02-07T08:20:27.713Z,39.15
2023-02-07T08:25:29.666Z,38.82
2023-02-07T08:30:31.835Z,38.84
2023-02-07T08:35:33.845Z,38.91
2023-02-07T08:40:36.838Z,39.08
2023-02-07T08:45:46.132Z,38.77
2023-02-07T08:50:48.022Z,38.74
2023-02-07T08:55:50.994Z,38.95
2023-02-07T09:00:52.803Z,39.09
2023-02-07T09:05:59.111Z,39.13
2023-02-07T09:11:01.225Z,38.90
2023-02-07T09:16:03.244Z,38.92
2023-02-07T09:21:05.636Z,38.91
2023-02-07T09:26:08.348Z,38.80
2023-02-07T09:31:12.086Z,38.72
2023-02-07T09:36:25.795Z,38.71
2023-02-07T09:41:54.867Z,38.92
2023-02-07T09:47:06.342Z,39.11
2023-02-07T09:52:15.101Z,39.20
2023-02-07T09:57:37.726Z,39.03
2023-02-07T10:02:45.599Z,38.70
2023-02-07T10:07:49.128Z,39.03
2023-02-07T10:13:12.067Z,38.78
2023-02-07T10:18:17.494Z,39.16
2023-02-07T10:23:28.378Z,39.13
2023-02-07T10:28:40.584Z,38.96
2023-02-07T10:33:48.626Z,39.02
2023-02-07T10:39:14.494Z,39.04
2023-02-07T10:44:20.577Z,38.93
2023-02-07T10:49:29.213Z,39.14
2023-02-07T10:54:51.076Z,39.09
2023-02-07T11:00:23.533Z,38.87
2023-02-07T11:05:25.634Z,38.81
2023-02-07T11:10:39.201Z,38.92
2023-02-07T11:16:04.810Z,38.89
2023-02-07T11:21:19.981Z,38.75
2023-02-07T11:26:23.638Z,39.01
2023-02-07T11:31:31.913Z,38.89
2023-02-07T11:36:34.839Z,38.95
2023-02-07T11:41:39.497Z,38.76
2023-02-07T11:46:44.194Z,38.81
2023-02-07T11:51:46.657Z,38.68
2023-02-07T11:56:55.739Z,38.79
2023-02-07T12:01:59.464Z,38.70
2023-02-07T12:07:06.540Z,38.66
2023-02-07T12:12:23.628Z,38.84
2023-02-07T12:17:47.772Z,38.65
2023-02-07T12:23:40.332Z,38.87
2023-02-07T12:28:49.608Z,38.98
2023-02-07T12:34:01.649Z,38.52
2023-02-07T12:39:14.065Z,38.86
2023-02-07T12:44:31.238Z,38.81
2023-02-07T12:50:03.890Z,38.66
2023-02-07T12:55:15.044Z,38.91
2023-02-07T13:00:37.904Z,38.69
2023-02-07T13:06:02.646Z,38.85
2023-02-07T13:11:32.082Z,38.68
2023-02-07T13:16:49.393Z,38.73
2023-02-07T13:22:24.665Z,39.01
2023-02-07T13:27:29.161Z,38.91
2023-02-07T13:32:31.147Z,38.75
2023-02-07T13:38:08.863Z,38.93
2023-02-07T13:43:21.169Z,38.92
2023-02-07T13:48:29.031Z,38.93
2023-02-07T13:53:39.891Z,39.01
2023-02-07T13:59:00.160Z,38.92
2023-02-07T14:04:08.593Z,38.93
2023-02-07T14:09:10.432Z,39.12
2023-02-07T14:14:28.711Z,38.66
2023-02-07T14:19:39.728Z,38.87
2023-02-07T14:24:51.759Z,38.84
2023-02-07T14:29:56.487Z,38.58
2023-02-07T14:35:16.957Z,38.96
2023-02-07T14:40:24.117Z,38.57
2023-02-07T14:45:30.362Z,38.94
2023-02-07T14:50:33.946Z,38.88
2023-02-07T14:55:42.747Z,38.89
2023-02-07T15:00:48.719Z,38.60
2023-02-07T15:05:54.366Z,38.58
2023-02-07T15:11:04.201Z,38.84
2023-02-07T15:16:08.230Z,38.70
2023-02-07T15:21:19.078Z,38.89
2023-02-07T15:26:21.210Z,38.51
2023-02-07T15:31:23.466Z,38.82
2023-02-07T15:36:37.774Z,38.58
2023-02-07T15:41:39.792Z,38.57
2023-02-07T15:46:51.515Z,38.78
2023-02-07T15:52:01.101Z,38.59
2023-02-07T15:57:02.910Z,38.71
2023-02-07T16:02:05.138Z,38.49
2023-02-07T16:07:12.093Z,38.49
2023-02-07T16:12:40.679Z,38.35
2023-02-07T16:17:42.637Z,38.57
2023-02-07T16:22:46.130Z,38.31
2023-02-07T16:27:51.890Z,38.38
2023-02-07T16:32:54.024Z,38.33
2023-02-07T16:37:56.270Z,38.69
2023-02-07T16:42:58.304Z,38.53
2023-02-07T16:48:00.940Z,38.58
2023-02-07T16:53:02.726Z,38.36
2023-02-07T16:58:06.458Z,38.51
2023-02-07T17:03:15.406Z,38.24
2023-02-07T17:08:22.995Z,38.05
2023-02-07T17:13:25.285Z,38.13
2023-02-07T17:18:27.342Z,38.07
2023-02-07T17:23:29.420Z,38.02
2023-02-07T17:28:33.111Z,38.05
2023-02-07T17:33:35.129Z,38.06
2023-02-07T17:38:36.985Z,37.77
2023-02-07T17:43:41.428Z,38.10
2023-02-07T17:48:43.917Z,37.79
2023-02-07T17:53:46.812Z,37.96
2023-02-07T17:58:48.979Z,38.38
2023-02-07T18:03:54.010Z,38.57
2023-02-07T18:08:58.913Z,38.26
2023-02-07T18:14:02.307Z,38.29
2023-02-07T18:19:04.627Z,38.18
2023-02-07T18:24:06.899Z,38.10
2023-02-07T18:29:09.755Z,38.01
2023-02-07T18:34:14.470Z,38.23
2023-02-07T18:39:16.458Z,38.88
2023-02-07T18:44:18.259Z,38.82
2023-02-07T18:49:20.458Z,38.72
2023-02-07T18:54:23.202Z,38.45
2023-02-07T18:59:26.023Z,38.56
2023-02-07T19:04:28.114Z,38.36
2023-02-07T19:09:30.123Z,38.23
2023-02-07T19:14:32.741Z,38.52
2023-02-07T19:19:35.126Z,38.22
2023-02-07T19:24:37.375Z,38.33
2023-02-07T19:29:39.371Z,38.39
2023-02-07T19:34:41.372Z,38.29
2023-02-07T19:39:45.251Z,38.46
2023-02-07T19:44:48.333Z,38.08
2023-02-07T19:49:52.241Z,38.22
2023-02-07T19:54:55.829Z,38.08
2023-02-07T19:59:57.909Z,38.29
2023-02-07T20:04:59.674Z,37.88
2023-02-07T20:10:01.923Z,38.19
2023-02-07T20:15:04.141Z,38.06
2023-02-07T20:20:06.959Z,38.10
2023-02-07T20:25:09.258Z,37.94
2023-02-07T20:30:11.578Z,37.76
2023-02-07T20:35:15.217Z,38.01
2023-02-07T20:40:18.202Z,37.90
2023-02-07T20:45:20.315Z,38.04
2023-02-07T20:50:22.408Z,38.20
2023-02-07T20:55:25.291Z,38.00
2023-02-07T21:00:27.176Z,38.03
2023-02-07T21:05:29.502Z,37.92
2023-02-07T21:10:31.572Z,37.87
2023-02-07T21:15:33.590Z,37.97
2023-02-07T21:20:38.289Z,38.05
2023-02-07T21:25:40.401Z,37.71
2023-02-07T21:30:42.709Z,37.92
2023-02-07T21:35:44.914Z,37.95
2023-02-07T21:40:46.890Z,37.56
2023-02-07T21:45:48.944Z,38.19
2023-02-07T21:50:50.977Z,38.03
2023-02-07T21:55:52.963Z,37.91
2023-02-07T22:00:55.237Z,38.20
2023-02-07T22:05:57.259Z,37.77
2023-02-07T22:11:03.322Z,37.91
2023-02-07T22:16:07.629Z,38.36
2023-02-07T22:21:14.980Z,38.38
2023-02-07T22:26:18.043Z,38.52
2023-02-07T22:31:24.892Z,38.50
2023-02-07T22:36:30.199Z,38.39
2023-02-07T22:41:32.987Z,38.34
2023-02-07T22:46:34.978Z,38.33
2023-02-07T22:51:38.350Z,38.59
2023-02-07T22:56:40.352Z,38.28
2023-02-07T23:01:42.659Z,38.43
2023-02-07T23:06:46.404Z,38.53
2023-02-07T23:11:48.596Z,38.30
2023-02-07T23:16:50.458Z,38.49
2023-02-07T23:21:52.253Z,38.49
2023-02-07T23:26:54.328Z,38.62
2023-02-07T23:31:56.447Z,38.23
2023-02-07T23:36:58.686Z,38.35
2023-02-07T23:42:00.695Z,38.51
2023-02-07T23:47:03.297Z,38.35
2023-02-07T23:52:05.306Z,38.51
2023-02-07T23:57:07.388Z,38.64
